Terminal Aerodrome Forecast
Issued by NWS

Home | Current Version | Previous Version | Text Only | Print | Product List | Glossary On
Versions: 1 2 3 4 5 6 7 8 9 10 11 12 13 14
000
FTUS45 KTFX 290500
TAFHLN
TAF
KHLN 290520Z 2906/3006 32005KT P6SM SCT150
     FM290700 VRB04KT P6SM SKC
     FM291200 VRB03KT P6SM BKN250
     FM292000 VRB06KT P6SM FEW090
     FM300300 VRB06KT P6SM SKC=

USA.gov is the U.S. government's official web portal to all federal, state and local government web resources and services.